Time;durP1;ratioP1;P1;durP2;ratioP2;P2;SDS_P1;SDS_P2;PMS_P1;PMS_P2;Temp;Humidity;BMP_temperature;BMP_pressure;BME280_temperature;BME280_humidity;BME280_pressure;Samples;Min_cycle;Max_cycle;Signal;HPM_P1;HPM_P2
2021/06/20 00:01:26;;;;;;;;;;;28.10;56.90;;;;;;5138083;27;20466;-72
2021/06/20 00:03:53;;;;;;;;;;;28.20;56.80;;;;;;5138080;27;20358;-72
2021/06/20 00:06:28;;;;;;;;;;;28.30;57.10;;;;;;5134749;27;19966;-73
2021/06/20 00:08:56;;;;;;;;;;;28.20;56.80;;;;;;5136371;27;19958;-72
2021/06/20 00:11:22;;;;;;;;;;;28.20;57.10;;;;;;5120494;27;19975;-72
2021/06/20 00:13:50;;;;;;;;;;;28.20;57.00;;;;;;5138122;27;19967;-73
2021/06/20 00:16:17;;;;;;;;;;;28.20;57.50;;;;;;5117938;27;20009;-70
2021/06/20 00:18:44;;;;;;;;;;;28.10;57.10;;;;;;5135842;27;20626;-71
2021/06/20 00:21:11;;;;;;;;;;;28.10;57.30;;;;;;5135742;27;19927;-72
2021/06/20 00:23:38;;;;;;;;;;;28.10;57.40;;;;;;5140804;27;20018;-73
2021/06/20 00:26:05;;;;;;;;;;;28.00;57.60;;;;;;5147565;27;20419;-73
2021/06/20 00:28:32;;;;;;;;;;;28.00;57.60;;;;;;5149502;27;20576;-73
2021/06/20 00:30:58;;;;;;;;;;;28.10;57.60;;;;;;5151014;27;20022;-73
2021/06/20 00:33:25;;;;;;;;;;;28.00;57.50;;;;;;5127074;27;20411;-73
2021/06/20 00:35:52;;;;;;;;;;;28.00;57.50;;;;;;5147795;27;19954;-73
2021/06/20 00:38:19;;;;;;;;;;;28.00;57.50;;;;;;5147484;27;19919;-73
2021/06/20 00:40:46;;;;;;;;;;;28.10;57.60;;;;;;5143279;27;20333;-73
2021/06/20 00:43:12;;;;;;;;;;;28.10;57.70;;;;;;5145285;27;19964;-71
2021/06/20 00:45:40;;;;;;;;;;;28.00;57.70;;;;;;5148658;27;20002;-72
2021/06/20 00:48:07;;;;;;;;;;;28.00;58.00;;;;;;5146230;27;21527;-73
2021/06/20 00:50:34;;;;;;;;;;;28.00;58.20;;;;;;5142447;27;20458;-71
2021/06/20 00:53:01;;;;;;;;;;;28.00;58.50;;;;;;5146139;27;20433;-72
2021/06/20 00:55:29;;;;;;;;;;;28.10;58.30;;;;;;5142768;27;19919;-72
2021/06/20 00:57:59;;;;;;;;;;;28.10;58.80;;;;;;5148711;27;20104;-72
2021/06/20 01:00:27;;;;;;;;;;;28.10;59.10;;;;;;5148971;27;19966;-71
2021/06/20 01:02:54;;;;;;;;;;;28.10;59.40;;;;;;5147040;27;20381;-71
2021/06/20 01:05:21;;;;;;;;;;;28.00;59.60;;;;;;5151044;27;19962;-68
2021/06/20 01:07:49;;;;;;;;;;;28.00;59.80;;;;;;5144665;27;20014;-72
2021/06/20 01:10:16;;;;;;;;;;;28.00;60.10;;;;;;5145027;27;19986;-71
2021/06/20 01:12:43;;;;;;;;;;;27.90;60.40;;;;;;5141552;27;19970;-66
2021/06/20 01:15:10;;;;;;;;;;;27.80;60.90;;;;;;5124634;27;20512;-65
2021/06/20 01:17:37;;;;;;;;;;;27.80;61.00;;;;;;5142382;27;20004;-64
2021/06/20 01:20:05;;;;;;;;;;;27.80;61.20;;;;;;5148325;27;19991;-64
2021/06/20 01:22:33;;;;;;;;;;;27.80;61.20;;;;;;5144971;27;19959;-64
2021/06/20 01:25:01;;;;;;;;;;;27.90;61.10;;;;;;5139795;27;19967;-65
2021/06/20 01:27:30;;;;;;;;;;;27.80;61.10;;;;;;5128789;27;20269;-64
2021/06/20 01:29:57;;;;;;;;;;;27.80;61.10;;;;;;5144854;27;19980;-64
2021/06/20 01:32:23;;;;;;;;;;;27.80;60.80;;;;;;5145122;27;19958;-64
2021/06/20 01:34:50;;;;;;;;;;;27.80;60.80;;;;;;5150034;27;19919;-64
2021/06/20 01:37:17;;;;;;;;;;;27.70;61.00;;;;;;5146320;27;19922;-65
2021/06/20 01:39:44;;;;;;;;;;;27.70;61.10;;;;;;5143531;27;19977;-65
2021/06/20 01:42:14;;;;;;;;;;;27.60;61.80;;;;;;5140796;27;20378;-66
2021/06/20 01:44:47;;;;;;;;;;;27.50;60.60;;;;;;5144494;27;19964;-64
2021/06/20 01:47:15;;;;;;;;;;;27.40;60.40;;;;;;5151811;27;19950;-64
2021/06/20 01:49:42;;;;;;;;;;;27.50;60.80;;;;;;5150713;27;20014;-65
2021/06/20 01:52:09;;;;;;;;;;;27.40;60.60;;;;;;5147004;27;19958;-65
2021/06/20 01:54:36;;;;;;;;;;;27.40;61.00;;;;;;5146636;27;20425;-65
2021/06/20 01:57:04;;;;;;;;;;;27.30;60.60;;;;;;5144151;27;19964;-66
2021/06/20 01:59:31;;;;;;;;;;;27.30;61.00;;;;;;5115844;27;20558;-65
2021/06/20 02:01:58;;;;;;;;;;;27.30;61.10;;;;;;5133403;27;20005;-65
2021/06/20 02:04:25;;;;;;;;;;;27.30;60.20;;;;;;5143001;27;19964;-66
2021/06/20 02:06:51;;;;;;;;;;;27.20;60.00;;;;;;5150461;27;19961;-65
2021/06/20 02:09:18;;;;;;;;;;;27.20;59.00;;;;;;5143058;27;19951;-66
2021/06/20 02:11:45;;;;;;;;;;;27.20;58.50;;;;;;5154529;27;20420;-65
2021/06/20 02:14:13;;;;;;;;;;;27.10;58.40;;;;;;5147465;27;20404;-68
2021/06/20 02:16:40;;;;;;;;;;;27.10;58.60;;;;;;5150618;27;19919;-64
2021/06/20 02:19:06;;;;;;;;;;;27.00;58.10;;;;;;5152124;27;20430;-64
2021/06/20 02:21:33;;;;;;;;;;;27.00;58.20;;;;;;5133859;27;20013;-64
2021/06/20 02:24:00;;;;;;;;;;;26.90;58.50;;;;;;5146333;27;20023;-64
2021/06/20 02:26:26;;;;;;;;;;;26.90;58.60;;;;;;5154840;27;20318;-63
2021/06/20 02:28:53;;;;;;;;;;;26.90;58.80;;;;;;5149057;27;19991;-64
2021/06/20 02:31:20;;;;;;;;;;;26.90;58.30;;;;;;5148728;27;20120;-64
2021/06/20 02:33:47;;;;;;;;;;;27.00;58.10;;;;;;5150782;27;19985;-65
2021/06/20 02:36:13;;;;;;;;;;;27.00;58.10;;;;;;5147169;27;19950;-63
2021/06/20 02:38:40;;;;;;;;;;;26.90;58.70;;;;;;5131015;27;19938;-63
2021/06/20 02:41:07;;;;;;;;;;;26.90;58.90;;;;;;5152571;27;19919;-64
2021/06/20 02:43:33;;;;;;;;;;;26.80;59.40;;;;;;5131015;27;19974;-65
2021/06/20 02:46:00;;;;;;;;;;;26.80;59.50;;;;;;5153784;27;20014;-64
2021/06/20 02:48:27;;;;;;;;;;;26.70;59.20;;;;;;5148314;27;20014;-64
2021/06/20 02:50:54;;;;;;;;;;;26.80;59.10;;;;;;5150223;27;19973;-71
2021/06/20 02:53:20;;;;;;;;;;;26.80;59.10;;;;;;5148468;27;19923;-71
2021/06/20 02:55:47;;;;;;;;;;;26.60;59.50;;;;;;5132041;27;20346;-71
2021/06/20 02:58:14;;;;;;;;;;;26.50;59.80;;;;;;5150248;27;20013;-70
2021/06/20 03:00:40;;;;;;;;;;;26.30;60.60;;;;;;5153925;27;20025;-72
2021/06/20 03:03:07;;;;;;;;;;;26.40;60.90;;;;;;5149637;27;19918;-71
2021/06/20 03:05:34;;;;;;;;;;;26.20;60.80;;;;;;5146737;27;19958;-71
2021/06/20 03:08:00;;;;;;;;;;;26.10;60.80;;;;;;5148419;27;19940;-72
2021/06/20 03:10:27;;;;;;;;;;;26.20;61.10;;;;;;5149244;27;19966;-71
2021/06/20 03:12:54;;;;;;;;;;;26.20;59.60;;;;;;5149884;27;19964;-71
2021/06/20 03:15:20;;;;;;;;;;;26.20;59.40;;;;;;5152124;27;19919;-71
2021/06/20 03:17:48;;;;;;;;;;;26.30;59.20;;;;;;5131187;27;20560;-70
2021/06/20 03:20:15;;;;;;;;;;;26.30;58.80;;;;;;5148617;27;20422;-71
2021/06/20 03:22:41;;;;;;;;;;;26.40;58.70;;;;;;5141641;27;20418;-71
2021/06/20 03:25:08;;;;;;;;;;;26.40;58.30;;;;;;5145265;27;20441;-71
2021/06/20 03:27:37;;;;;;;;;;;26.40;58.30;;;;;;5152403;27;19965;-71
2021/06/20 03:30:04;;;;;;;;;;;26.40;57.60;;;;;;5147618;27;19951;-71
2021/06/20 03:32:31;;;;;;;;;;;26.20;57.70;;;;;;5140530;27;19961;-70
2021/06/20 03:34:57;;;;;;;;;;;26.20;57.40;;;;;;5150989;27;20329;-70
2021/06/20 03:37:24;;;;;;;;;;;26.30;57.70;;;;;;5144086;27;20013;-71
2021/06/20 03:39:51;;;;;;;;;;;26.20;57.00;;;;;;5144479;27;19920;-71
2021/06/20 03:42:17;;;;;;;;;;;26.20;56.70;;;;;;5151034;27;20072;-71
2021/06/20 03:44:44;;;;;;;;;;;26.10;56.60;;;;;;5148427;27;19997;-71
2021/06/20 03:47:11;;;;;;;;;;;26.10;56.50;;;;;;5149235;27;19957;-71
2021/06/20 03:49:41;;;;;;;;;;;26.10;56.70;;;;;;5150088;27;19923;-71
2021/06/20 03:52:07;;;;;;;;;;;26.10;56.60;;;;;;5145486;27;20282;-71
2021/06/20 03:54:34;;;;;;;;;;;26.00;57.30;;;;;;5149777;27;20357;-71
2021/06/20 03:57:01;;;;;;;;;;;25.90;57.40;;;;;;5144104;27;19998;-72
2021/06/20 03:59:31;;;;;;;;;;;25.90;57.60;;;;;;5143190;27;19942;-64
2021/06/20 04:01:57;;;;;;;;;;;25.90;57.30;;;;;;5147829;27;19993;-65
2021/06/20 04:04:24;;;;;;;;;;;25.90;57.20;;;;;;5148548;27;19950;-65
2021/06/20 04:06:51;;;;;;;;;;;25.90;57.10;;;;;;5146396;27;19942;-65
2021/06/20 04:09:18;;;;;;;;;;;25.90;57.00;;;;;;5147304;27;20085;-67
2021/06/20 04:11:47;;;;;;;;;;;25.90;56.90;;;;;;5149037;27;20002;-64
2021/06/20 04:14:14;;;;;;;;;;;25.90;56.80;;;;;;5148034;27;20009;-65
2021/06/20 04:16:40;;;;;;;;;;;25.80;56.70;;;;;;5147510;27;20286;-65
2021/06/20 04:19:07;;;;;;;;;;;25.80;56.80;;;;;;5146687;27;19931;-65
2021/06/20 04:21:34;;;;;;;;;;;25.80;56.60;;;;;;5139526;27;20041;-65
2021/06/20 04:24:00;;;;;;;;;;;25.70;57.00;;;;;;5145692;27;20377;-66
2021/06/20 04:26:27;;;;;;;;;;;25.60;57.00;;;;;;5148992;27;20401;-65
2021/06/20 04:28:54;;;;;;;;;;;25.60;57.40;;;;;;5145700;27;20353;-65
2021/06/20 04:31:21;;;;;;;;;;;25.60;57.50;;;;;;5146161;27;20014;-65
2021/06/20 04:33:48;;;;;;;;;;;25.50;57.50;;;;;;5150841;27;19919;-64
2021/06/20 04:36:15;;;;;;;;;;;25.60;57.40;;;;;;5149801;27;20388;-64
2021/06/20 04:38:43;;;;;;;;;;;25.60;57.40;;;;;;5148763;27;20364;-64
2021/06/20 04:41:13;;;;;;;;;;;25.60;57.50;;;;;;5151722;27;19962;-65
2021/06/20 04:46:23;;;;;;;;;;;25.70;57.60;;;;;;5136014;27;19970;-64
2021/06/20 04:48:50;;;;;;;;;;;25.70;57.60;;;;;;5144420;27;19919;-68
2021/06/20 04:51:17;;;;;;;;;;;25.80;57.20;;;;;;5148792;27;19926;-65
2021/06/20 04:53:44;;;;;;;;;;;25.90;57.20;;;;;;5144948;27;19965;-65
2021/06/20 04:56:11;;;;;;;;;;;26.10;56.80;;;;;;5148712;27;19971;-71
2021/06/20 04:58:38;;;;;;;;;;;26.40;56.30;;;;;;5147562;27;19919;-71
2021/06/20 05:01:05;;;;;;;;;;;26.20;56.60;;;;;;5147751;27;19939;-71
2021/06/20 05:03:32;;;;;;;;;;;26.30;57.00;;;;;;5150300;27;19954;-71
2021/06/20 05:05:58;;;;;;;;;;;26.30;57.10;;;;;;5146345;27;19967;-71
2021/06/20 05:08:25;;;;;;;;;;;26.00;57.30;;;;;;5125629;27;20292;-71
2021/06/20 05:10:53;;;;;;;;;;;26.00;57.40;;;;;;5144963;27;19959;-71
2021/06/20 05:13:23;;;;;;;;;;;25.90;57.60;;;;;;5144246;27;19958;-72
2021/06/20 05:15:49;;;;;;;;;;;25.90;57.90;;;;;;5145538;27;20366;-71
2021/06/20 05:18:16;;;;;;;;;;;25.70;58.20;;;;;;5150675;27;20013;-72
2021/06/20 05:20:43;;;;;;;;;;;25.70;58.30;;;;;;5146529;27;20021;-72
2021/06/20 05:23:10;;;;;;;;;;;25.40;58.60;;;;;;5144056;27;19958;-71
2021/06/20 05:25:36;;;;;;;;;;;25.60;58.80;;;;;;5151989;27;20364;-71
2021/06/20 05:28:03;;;;;;;;;;;25.40;58.60;;;;;;5149678;27;19958;-70
2021/06/20 05:30:30;;;;;;;;;;;25.40;59.00;;;;;;5150275;27;19923;-71
2021/06/20 05:32:57;;;;;;;;;;;25.20;59.10;;;;;;5152309;27;19969;-70
2021/06/20 05:35:24;;;;;;;;;;;25.60;58.80;;;;;;5151357;27;19927;-72
2021/06/20 05:37:50;;;;;;;;;;;25.90;58.10;;;;;;5143949;27;20330;-71
2021/06/20 05:40:17;;;;;;;;;;;25.60;58.30;;;;;;5148584;27;19918;-71
2021/06/20 05:42:44;;;;;;;;;;;25.40;58.90;;;;;;5141904;27;20026;-72
2021/06/20 05:45:11;;;;;;;;;;;25.30;59.30;;;;;;5153502;27;19962;-72
2021/06/20 05:47:37;;;;;;;;;;;25.20;59.30;;;;;;5144728;27;20006;-72
2021/06/20 05:50:04;;;;;;;;;;;25.20;59.40;;;;;;5150917;27;19980;-70
2021/06/20 05:52:31;;;;;;;;;;;25.00;59.60;;;;;;5147656;27;19953;-71
2021/06/20 05:54:58;;;;;;;;;;;25.10;59.80;;;;;;5149636;27;20026;-71
2021/06/20 05:57:25;;;;;;;;;;;25.30;59.70;;;;;;5149237;27;19954;-70
2021/06/20 05:59:52;;;;;;;;;;;25.30;59.50;;;;;;5151510;27;20413;-72
2021/06/20 06:02:19;;;;;;;;;;;25.50;59.30;;;;;;5148216;27;19969;-65
2021/06/20 06:04:46;;;;;;;;;;;25.40;59.20;;;;;;5128463;27;19969;-65
2021/06/20 06:07:13;;;;;;;;;;;25.50;58.90;;;;;;5150194;27;19955;-64
2021/06/20 06:09:40;;;;;;;;;;;25.70;59.00;;;;;;5148715;27;20014;-65
2021/06/20 06:12:06;;;;;;;;;;;25.50;59.30;;;;;;5150618;27;19958;-65
2021/06/20 06:14:33;;;;;;;;;;;25.50;59.40;;;;;;5148287;27;19924;-64
2021/06/20 06:17:00;;;;;;;;;;;25.40;59.50;;;;;;5144530;27;19926;-65
2021/06/20 06:19:27;;;;;;;;;;;25.30;59.40;;;;;;5147687;27;20400;-65
2021/06/20 06:21:53;;;;;;;;;;;25.20;60.10;;;;;;5147455;27;19969;-65
2021/06/20 06:24:20;;;;;;;;;;;25.20;59.80;;;;;;5148401;27;20279;-66
2021/06/20 06:26:47;;;;;;;;;;;25.20;59.60;;;;;;5146375;27;19927;-66
2021/06/20 06:29:14;;;;;;;;;;;25.40;59.00;;;;;;5144889;27;19991;-64
2021/06/20 06:31:41;;;;;;;;;;;25.60;59.10;;;;;;5145888;27;19923;-65
2021/06/20 06:34:08;;;;;;;;;;;25.60;58.60;;;;;;5146793;27;19963;-63
2021/06/20 06:36:36;;;;;;;;;;;25.60;58.60;;;;;;5127448;27;20011;-65
2021/06/20 06:39:04;;;;;;;;;;;25.30;58.80;;;;;;5123592;27;19966;-64
2021/06/20 06:41:31;;;;;;;;;;;25.40;59.00;;;;;;5149011;27;19941;-64
2021/06/20 06:43:58;;;;;;;;;;;25.60;58.40;;;;;;5149046;27;19970;-64
2021/06/20 06:46:28;;;;;;;;;;;25.60;58.30;;;;;;5141585;27;19919;-65
2021/06/20 06:48:56;;;;;;;;;;;25.60;58.40;;;;;;5149543;27;19926;-65
2021/06/20 06:51:23;;;;;;;;;;;25.80;58.20;;;;;;5148720;27;19965;-64
2021/06/20 06:53:49;;;;;;;;;;;25.70;58.10;;;;;;5146310;27;20001;-64
2021/06/20 06:56:16;;;;;;;;;;;25.50;58.70;;;;;;5150495;27;19923;-64
2021/06/20 06:58:43;;;;;;;;;;;25.40;58.80;;;;;;5142145;27;20633;-64
2021/06/20 07:01:09;;;;;;;;;;;25.40;59.30;;;;;;5147804;27;19994;-67
2021/06/20 07:03:36;;;;;;;;;;;25.40;58.60;;;;;;5147467;27;20364;-64
2021/06/20 07:06:03;;;;;;;;;;;25.40;59.10;;;;;;5145972;27;20230;-64
2021/06/20 07:08:30;;;;;;;;;;;25.20;59.40;;;;;;5148448;27;19975;-65
2021/06/20 07:10:57;;;;;;;;;;;25.20;58.90;;;;;;5143004;27;20272;-66
2021/06/20 07:13:23;;;;;;;;;;;25.50;58.60;;;;;;5145793;27;19962;-64
2021/06/20 07:16:07;;;;;;;;;;;25.80;58.20;;;;;;5076532;27;19916;-65
2021/06/20 07:18:34;;;;;;;;;;;25.60;58.60;;;;;;5064555;28;19932;-64
2021/06/20 07:21:02;;;;;;;;;;;25.40;58.40;;;;;;5061755;28;19951;-65
2021/06/20 07:23:28;;;;;;;;;;;25.40;58.90;;;;;;5061115;28;20306;-64
2021/06/20 07:25:56;;;;;;;;;;;25.50;58.00;;;;;;5063853;28;20051;-65
2021/06/20 07:28:22;;;;;;;;;;;25.40;58.80;;;;;;5061671;28;19968;-65
2021/06/20 07:30:49;;;;;;;;;;;25.70;58.10;;;;;;5063756;28;20007;-66
2021/06/20 07:33:17;;;;;;;;;;;25.80;57.70;;;;;;5062078;28;19924;-64
2021/06/20 07:35:46;;;;;;;;;;;25.80;57.60;;;;;;5063133;28;19986;-65
2021/06/20 07:38:13;;;;;;;;;;;25.60;57.80;;;;;;5064797;28;20015;-63
2021/06/20 07:40:40;;;;;;;;;;;25.70;57.80;;;;;;5064258;28;19936;-64
2021/06/20 07:43:07;;;;;;;;;;;26.10;57.20;;;;;;5063913;28;20545;-64
2021/06/20 07:45:34;;;;;;;;;;;26.10;57.10;;;;;;5055940;28;20529;-65
2021/06/20 07:48:01;;;;;;;;;;;25.80;57.30;;;;;;5062338;28;19935;-64
2021/06/20 07:50:27;;;;;;;;;;;25.90;57.30;;;;;;5063636;28;19943;-64
2021/06/20 07:52:54;;;;;;;;;;;26.00;57.20;;;;;;5063138;28;19974;-65
2021/06/20 07:55:21;;;;;;;;;;;25.80;57.90;;;;;;5059022;28;20351;-64
2021/06/20 07:57:48;;;;;;;;;;;25.90;57.50;;;;;;5060890;28;19924;-68
2021/06/20 08:00:15;;;;;;;;;;;26.30;56.80;;;;;;5063451;28;19972;-71
2021/06/20 08:02:42;;;;;;;;;;;26.50;56.80;;;;;;5061986;28;19933;-73
2021/06/20 08:05:09;;;;;;;;;;;26.30;56.70;;;;;;5062215;28;20432;-72
2021/06/20 08:07:36;;;;;;;;;;;26.30;56.30;;;;;;5060389;28;19925;-72
2021/06/20 08:10:03;;;;;;;;;;;26.10;56.50;;;;;;5060353;28;19990;-72
2021/06/20 08:12:30;;;;;;;;;;;26.20;56.60;;;;;;5062881;28;20300;-72
2021/06/20 08:14:57;;;;;;;;;;;26.10;56.40;;;;;;5063568;28;19929;-72
2021/06/20 08:17:24;;;;;;;;;;;25.90;56.80;;;;;;5060198;28;19986;-73
2021/06/20 08:19:51;;;;;;;;;;;26.00;56.70;;;;;;5064093;28;19928;-72
2021/06/20 08:22:18;;;;;;;;;;;26.30;56.50;;;;;;5061341;28;19970;-72
2021/06/20 08:24:45;;;;;;;;;;;26.10;55.70;;;;;;5060582;28;20527;-72
2021/06/20 08:27:12;;;;;;;;;;;26.30;56.00;;;;;;5053383;28;20533;-71
2021/06/20 08:29:42;;;;;;;;;;;26.40;55.60;;;;;;5048566;28;19984;-72
2021/06/20 08:32:08;;;;;;;;;;;26.50;55.10;;;;;;5046811;28;19967;-71
2021/06/20 08:34:35;;;;;;;;;;;26.70;55.40;;;;;;5045671;28;19929;-72
2021/06/20 08:37:02;;;;;;;;;;;26.80;55.30;;;;;;5060178;28;20007;-73
2021/06/20 08:39:29;;;;;;;;;;;26.80;54.50;;;;;;5051102;28;19982;-73
2021/06/20 08:41:55;;;;;;;;;;;26.50;54.70;;;;;;5048737;28;19964;-72
2021/06/20 08:44:27;;;;;;;;;;;26.30;55.40;;;;;;5050749;28;19964;-71
2021/06/20 08:46:54;;;;;;;;;;;25.90;56.60;;;;;;5040953;28;19998;-71
2021/06/20 08:49:22;;;;;;;;;;;25.80;57.20;;;;;;5057636;28;19968;-72
2021/06/20 08:51:49;;;;;;;;;;;26.10;57.00;;;;;;5042238;28;19975;-65
2021/06/20 08:54:17;;;;;;;;;;;26.20;56.10;;;;;;5048371;28;19964;-66
2021/06/20 08:56:44;;;;;;;;;;;26.30;56.30;;;;;;5052842;28;20014;-65
2021/06/20 08:59:11;;;;;;;;;;;26.40;55.90;;;;;;5045025;28;19975;-66
2021/06/20 09:01:38;;;;;;;;;;;26.50;55.90;;;;;;5047195;28;20363;-65
2021/06/20 09:04:05;;;;;;;;;;;26.70;55.90;;;;;;5049165;28;19939;-66
2021/06/20 09:06:32;;;;;;;;;;;26.50;56.20;;;;;;5043328;28;19972;-67
2021/06/20 09:09:00;;;;;;;;;;;27.00;55.70;;;;;;5044998;28;20021;-65
2021/06/20 09:11:31;;;;;;;;;;;27.20;55.30;;;;;;5049017;28;19929;-65
2021/06/20 09:14:03;;;;;;;;;;;27.00;55.80;;;;;;5047138;28;19976;-64
2021/06/20 09:16:30;;;;;;;;;;;27.00;56.10;;;;;;5047627;28;20015;-66
2021/06/20 09:18:57;;;;;;;;;;;26.80;55.70;;;;;;5054628;28;20395;-64
2021/06/20 09:21:27;;;;;;;;;;;26.90;55.60;;;;;;5044872;28;19925;-65
2021/06/20 09:23:55;;;;;;;;;;;26.70;55.10;;;;;;5046310;28;19925;-67
2021/06/20 09:26:33;;;;;;;;;;;26.70;55.90;;;;;;5047783;28;20490;-66
2021/06/20 09:28:59;;;;;;;;;;;26.50;56.00;;;;;;5047634;28;20391;-65
2021/06/20 09:31:41;;;;;;;;;;;26.10;56.50;;;;;;5043979;28;19925;-65
2021/06/20 09:34:08;;;;;;;;;;;25.90;57.70;;;;;;5047602;28;19924;-71
2021/06/20 09:36:34;;;;;;;;;;;25.40;58.70;;;;;;5047137;28;20027;-71
2021/06/20 09:39:03;;;;;;;;;;;25.40;58.90;;;;;;5049097;28;20126;-71
2021/06/20 09:41:30;;;;;;;;;;;25.70;58.60;;;;;;5047731;28;20036;-73
2021/06/20 09:43:56;;;;;;;;;;;25.90;57.60;;;;;;5049921;28;20016;-73
2021/06/20 09:46:23;;;;;;;;;;;26.00;57.40;;;;;;5044270;28;20012;-72
2021/06/20 09:48:50;;;;;;;;;;;26.00;57.50;;;;;;5050405;28;19931;-74
2021/06/20 09:51:19;;;;;;;;;;;26.20;57.10;;;;;;5048866;28;20020;-73
2021/06/20 09:53:48;;;;;;;;;;;25.90;57.50;;;;;;5046222;28;19925;-74
2021/06/20 09:56:19;;;;;;;;;;;25.80;57.20;;;;;;5047656;28;19925;-74
2021/06/20 09:58:47;;;;;;;;;;;25.80;57.20;;;;;;5048273;28;20027;-73
2021/06/20 10:01:17;;;;;;;;;;;25.60;57.70;;;;;;5046987;28;19949;-71
2021/06/20 10:03:45;;;;;;;;;;;25.50;58.10;;;;;;5050276;28;19925;-71
2021/06/20 10:06:13;;;;;;;;;;;25.60;58.50;;;;;;5042361;28;20019;-71
2021/06/20 10:08:40;;;;;;;;;;;25.70;58.70;;;;;;5044948;28;20019;-72
2021/06/20 10:11:07;;;;;;;;;;;25.70;59.10;;;;;;5049013;28;19971;-73
2021/06/20 10:13:34;;;;;;;;;;;25.60;60.20;;;;;;5041285;28;20040;-66
2021/06/20 10:16:14;;;;;;;;;;;25.40;60.90;;;;;;5039421;28;19979;-65
2021/06/20 10:18:46;;;;;;;;;;;25.40;61.40;;;;;;5043635;28;20574;-66
2021/06/20 10:21:12;;;;;;;;;;;25.50;61.00;;;;;;5044717;28;19978;-65
2021/06/20 10:23:39;;;;;;;;;;;25.50;60.70;;;;;;5044325;28;19933;-66
2021/06/20 10:26:08;;;;;;;;;;;25.40;61.00;;;;;;5047930;28;19975;-65
2021/06/20 10:28:35;;;;;;;;;;;25.60;61.50;;;;;;5045403;28;19928;-66
2021/06/20 10:31:07;;;;;;;;;;;25.50;59.70;;;;;;5046221;28;20503;-64
2021/06/20 10:33:35;;;;;;;;;;;25.70;59.00;;;;;;5043821;28;19929;-65
2021/06/20 10:36:03;;;;;;;;;;;25.70;58.30;;;;;;5044791;28;20211;-64
2021/06/20 10:38:37;;;;;;;;;;;25.70;57.80;;;;;;5043587;28;19971;-69
2021/06/20 10:41:05;;;;;;;;;;;26.20;57.10;;;;;;5042216;28;20023;-72
2021/06/20 10:43:32;;;;;;;;;;;26.50;56.00;;;;;;5045354;28;19940;-72
2021/06/20 10:45:59;;;;;;;;;;;26.90;55.90;;;;;;5047389;28;19944;-73
2021/06/20 10:48:33;;;;;;;;;;;27.00;56.20;;;;;;5044664;28;19933;-73
2021/06/20 10:51:00;;;;;;;;;;;27.20;56.00;;;;;;5046100;28;20063;-73
2021/06/20 10:53:40;;;;;;;;;;;27.20;54.80;;;;;;5046374;28;20364;-73
2021/06/20 10:56:06;;;;;;;;;;;27.00;55.40;;;;;;5046383;28;19941;-73
2021/06/20 10:58:46;;;;;;;;;;;27.00;55.40;;;;;;5044513;28;20303;-71
2021/06/20 11:01:17;;;;;;;;;;;27.10;55.30;;;;;;5046429;28;20027;-70
2021/06/20 11:03:58;;;;;;;;;;;27.20;55.50;;;;;;5044935;28;20017;-70
2021/06/20 11:06:26;;;;;;;;;;;27.10;55.60;;;;;;5045650;28;19928;-72
2021/06/20 11:08:52;;;;;;;;;;;27.10;55.50;;;;;;5045264;28;20344;-72
2021/06/20 11:11:22;;;;;;;;;;;27.00;55.90;;;;;;5045575;28;20024;-72
2021/06/20 11:14:00;;;;;;;;;;;27.20;55.40;;;;;;5046950;28;19991;-74
2021/06/20 11:16:40;;;;;;;;;;;27.10;55.20;;;;;;5045994;28;19933;-71
2021/06/20 11:19:09;;;;;;;;;;;27.60;53.90;;;;;;5046979;28;19940;-72
2021/06/20 11:21:38;;;;;;;;;;;27.60;53.00;;;;;;5044473;28;19929;-64
2021/06/20 11:24:06;;;;;;;;;;;27.50;53.30;;;;;;5046069;28;19943;-67
2021/06/20 11:26:33;;;;;;;;;;;27.30;54.30;;;;;;5045659;28;19929;-65
2021/06/20 11:29:00;;;;;;;;;;;27.20;54.50;;;;;;5045783;28;20036;-64
2021/06/20 11:31:27;;;;;;;;;;;27.60;53.70;;;;;;5045459;28;20026;-64
2021/06/20 11:33:55;;;;;;;;;;;27.60;53.90;;;;;;5046022;28;20372;-64
2021/06/20 11:36:22;;;;;;;;;;;27.50;53.00;;;;;;5046425;28;20415;-64
2021/06/20 11:38:49;;;;;;;;;;;27.80;54.30;;;;;;5046779;28;19971;-64
2021/06/20 11:41:16;;;;;;;;;;;27.60;53.20;;;;;;5046742;28;20039;-66
2021/06/20 11:43:55;;;;;;;;;;;28.00;52.90;;;;;;5047546;28;19932;-66
2021/06/20 11:46:22;;;;;;;;;;;28.20;52.60;;;;;;5044047;28;20259;-66
2021/06/20 11:48:53;;;;;;;;;;;28.10;53.60;;;;;;5046133;28;19986;-64
2021/06/20 11:51:38;;;;;;;;;;;28.30;53.40;;;;;;5047724;28;19972;-65
2021/06/20 11:54:06;;;;;;;;;;;28.40;52.00;;;;;;5044236;28;19943;-65
2021/06/20 11:56:33;;;;;;;;;;;28.30;51.90;;;;;;5047427;28;20013;-65
2021/06/20 11:59:00;;;;;;;;;;;28.10;51.80;;;;;;5046726;28;19964;-65
2021/06/20 12:01:46;;;;;;;;;;;28.10;53.20;;;;;;5045199;28;20011;-65
2021/06/20 12:04:14;;;;;;;;;;;28.10;52.20;;;;;;5049023;28;20526;-64
2021/06/20 12:06:41;;;;;;;;;;;28.30;53.30;;;;;;5050138;28;19991;-65
2021/06/20 12:09:09;;;;;;;;;;;28.30;52.90;;;;;;5049166;28;19999;-65
2021/06/20 12:11:36;;;;;;;;;;;28.00;52.70;;;;;;5050128;28;21184;-66
2021/06/20 12:14:03;;;;;;;;;;;28.10;51.80;;;;;;5063750;28;20036;-67
2021/06/20 12:16:30;;;;;;;;;;;28.40;52.10;;;;;;5048756;28;20289;-65
2021/06/20 12:18:57;;;;;;;;;;;28.80;51.30;;;;;;5050720;28;20551;-64
2021/06/20 12:21:26;;;;;;;;;;;29.60;50.30;;;;;;5049185;28;20031;-66
2021/06/20 12:23:54;;;;;;;;;;;30.90;48.90;;;;;;5048155;28;20015;-72
2021/06/20 12:26:28;;;;;;;;;;;32.90;47.10;;;;;;5049968;28;19929;-70
2021/06/20 12:28:55;;;;;;;;;;;34.20;43.60;;;;;;5049737;28;20462;-73
2021/06/20 12:31:23;;;;;;;;;;;38.00;38.40;;;;;;5048999;28;20042;-73
2021/06/20 12:33:59;;;;;;;;;;;38.40;35.40;;;;;;5050621;28;20020;-72
2021/06/20 12:36:28;;;;;;;;;;;38.50;35.20;;;;;;5077342;28;19935;-72
2021/06/20 12:38:55;;;;;;;;;;;38.20;35.70;;;;;;5049526;28;20405;-72
2021/06/20 12:41:29;;;;;;;;;;;38.50;35.00;;;;;;5049940;28;20015;-73
2021/06/20 12:44:09;;;;;;;;;;;38.20;35.60;;;;;;5047141;28;20050;-72
2021/06/20 12:46:39;;;;;;;;;;;38.30;35.70;;;;;;5047783;28;20028;-71
2021/06/20 12:49:07;;;;;;;;;;;38.40;36.00;;;;;;5050955;28;19928;-72
2021/06/20 12:51:36;;;;;;;;;;;37.80;36.70;;;;;;5047068;28;19937;-74
2021/06/20 12:54:07;;;;;;;;;;;36.80;38.20;;;;;;5048709;28;19928;-73
2021/06/20 12:56:34;;;;;;;;;;;35.60;39.90;;;;;;5049215;28;19959;-74
2021/06/20 12:59:08;;;;;;;;;;;35.00;39.80;;;;;;5048044;28;20040;-73
2021/06/20 13:01:36;;;;;;;;;;;34.30;42.00;;;;;;5048374;28;19939;-72
2021/06/20 13:04:10;;;;;;;;;;;34.10;42.40;;;;;;5048172;28;20401;-73
2021/06/20 13:06:36;;;;;;;;;;;33.30;43.20;;;;;;5048531;28;19968;-66
2021/06/20 13:09:04;;;;;;;;;;;33.00;43.60;;;;;;5048821;28;20015;-65
2021/06/20 13:11:31;;;;;;;;;;;33.30;42.60;;;;;;5048100;28;20013;-67
2021/06/20 13:14:11;;;;;;;;;;;32.60;42.70;;;;;;5047075;28;19964;-65
2021/06/20 13:16:38;;;;;;;;;;;32.80;43.30;;;;;;5046075;28;20002;-65
2021/06/20 13:19:05;;;;;;;;;;;32.80;43.50;;;;;;5047480;28;19932;-66
2021/06/20 13:21:33;;;;;;;;;;;32.30;44.20;;;;;;5048763;28;20017;-65
2021/06/20 13:24:00;;;;;;;;;;;32.60;43.70;;;;;;5049565;28;20108;-65
2021/06/20 13:26:30;;;;;;;;;;;33.60;42.90;;;;;;5048482;28;20019;-66
2021/06/20 13:28:57;;;;;;;;;;;33.80;42.00;;;;;;5048682;28;20430;-67
2021/06/20 13:31:24;;;;;;;;;;;32.80;43.00;;;;;;5046489;28;20058;-65
2021/06/20 13:33:55;;;;;;;;;;;32.10;45.30;;;;;;5046972;28;19937;-65
2021/06/20 13:36:22;;;;;;;;;;;32.60;44.50;;;;;;5049036;28;20352;-66
2021/06/20 13:38:49;;;;;;;;;;;32.30;43.40;;;;;;5046291;28;20673;-66
2021/06/20 13:41:16;;;;;;;;;;;32.60;44.30;;;;;;5046377;28;19933;-71
2021/06/20 13:43:43;;;;;;;;;;;31.90;45.00;;;;;;5044208;28;20522;-66
2021/06/20 13:46:11;;;;;;;;;;;31.70;47.10;;;;;;5045267;28;20393;-65
2021/06/20 13:48:37;;;;;;;;;;;32.30;44.90;;;;;;5045723;28;19986;-66
2021/06/20 13:51:04;;;;;;;;;;;32.00;44.90;;;;;;5046808;28;19933;-65
2021/06/20 13:53:31;;;;;;;;;;;31.30;46.60;;;;;;5044277;28;20011;-66
2021/06/20 13:55:58;;;;;;;;;;;30.90;46.50;;;;;;5047298;28;19992;-64
2021/06/20 13:58:24;;;;;;;;;;;30.70;47.10;;;;;;5044280;28;21243;-65
2021/06/20 14:00:52;;;;;;;;;;;30.60;47.40;;;;;;5046664;28;20425;-65
2021/06/20 14:03:19;;;;;;;;;;;30.50;47.90;;;;;;5031244;28;19997;-66
2021/06/20 14:05:46;;;;;;;;;;;30.40;47.60;;;;;;5032260;28;19928;-66
2021/06/20 14:08:13;;;;;;;;;;;30.30;47.80;;;;;;5032313;28;20093;-71
2021/06/20 14:10:40;;;;;;;;;;;30.40;48.00;;;;;;5031711;28;20016;-70
2021/06/20 14:13:07;;;;;;;;;;;30.20;48.90;;;;;;5033859;28;19929;-72
2021/06/20 14:15:33;;;;;;;;;;;30.10;48.10;;;;;;5033293;28;19933;-72
2021/06/20 14:18:00;;;;;;;;;;;30.40;47.70;;;;;;5031514;28;20015;-73
2021/06/20 14:20:27;;;;;;;;;;;30.50;48.10;;;;;;5030624;28;20007;-72
2021/06/20 14:22:53;;;;;;;;;;;30.40;48.80;;;;;;5033961;28;20300;-73